Flight Track Log - Related Links

Times and Time Zones

All times are in EDT time to prevent confusion due to time zone crossing. See the AWI4083 flight status page for this flight to view local times or setup timezone preferences in your user account.

Time Position Orientation Groundspeed Altitude Reporting Facility
EDT Latitude Longitude Course Direction KTS MPH feet Rate Location/Type
Fri 11:52:25 AM 38.8833 -77.0833 180° South 199 229 2,300  Level Potomac TRACON
Fri 11:53:20 AM 38.9333 -77.1333 322° Northwest 225 259 5,300 2,529 Climbing Potomac TRACON
Fri 11:54:00 AM 38.6321 -76.8094 134° Southeast  Level FlightAware Approximate
Fri 11:54:26 AM 38.9833 -77.1333 360° North 236 272 7,400  Level Potomac TRACON
Fri 11:55:00 AM 38.5621 -76.7287 142° Southeast  Level FlightAware Approximate
Fri 11:55:20 AM 38.9667 -77.0667 108° East 262 302 9,200  Level Potomac TRACON
Fri 11:56:00 AM 38.4716 -76.7043 171° South  Level FlightAware Approximate
Fri 11:56:14 AM 38.9333 -76.9833 117° Southeast 282 325 11,100  Level Potomac TRACON
Fri 11:57:00 AM 38.3774 -76.7000 180° South  Level FlightAware Approximate
Fri 11:57:15 AM 38.8667 -76.9333 150° Southeast 358 412 12,000  Level Potomac TRACON
Fri 11:58:15 AM 38.7833 -76.8667 148° Southeast 358 412 13,600 1,442 Climbing Potomac TRACON
Fri 11:58:59 AM 38.7194 -76.8342 158° South 371 427 14,500 1,486 Climbing Washington Center
Fri 12:00:00 PM 38.6283 -76.7742 153° Southeast 376 433 16,200 1,426 Climbing Washington Center
Fri 12:01:01 PM 38.5328 -76.7250 158° South 376 433 17,400 1,091 Climbing Washington Center
Fri 12:02:01 PM 38.4244 -76.7100 174° South 376 433 18,400 1,068 Climbing Washington Center
Fri 12:02:59 PM 38.3142 -76.6978 175° South 392 451 19,500 1,068 Climbing Washington Center
Fri 12:03:59 PM 38.1933 -76.6750 172° South 402 463 20,500 984 Climbing Washington Center
Fri 12:05:01 PM 38.0808 -76.6600 174° South 409 471 21,500 1,050 Climbing Washington Center
Fri 12:05:59 PM 37.9642 -76.6481 175° South 409 471 22,600 1,008 Climbing Washington Center
Fri 12:07:00 PM 37.8494 -76.6594 184° South 409 471 23,500 1,033 Climbing Washington Center
Fri 12:08:01 PM 37.7367 -76.6736 186° South 414 476 24,700 1,140 Climbing Washington Center
Fri 12:09:01 PM 37.6239 -76.6878 186° South 414 476 25,800 1,026 Climbing Washington Center
Fri 12:09:58 PM 37.5089 -76.7019 186° South 414 476 26,700 1,068 Climbing Washington Center
Fri 12:10:59 PM 37.3983 -76.7292 191° South 414 476 27,900 1,180 Climbing Washington Center
Fri 12:12:00 PM 37.2936 -76.7719 198° South 404 465 29,100 836 Climbing Washington Center
Fri 12:13:01 PM 37.1908 -76.8172 199° South 404 465 29,600 454 Climbing Washington Center
Fri 12:13:59 PM 37.0839 -76.8597 198° South 404 465 30,000 203 Climbing Washington Center
Fri 12:14:59 PM 36.9772 -76.9047 199° South 404 465 30,000  Level Washington Center
Fri 12:16:00 PM 36.8703 -76.9472 198° South 404 465 30,000  Level Washington Center
Fri 12:17:01 PM 36.7633 -76.9944 199° South 409 471 30,000  Level Washington Center
Fri 12:17:59 PM 36.6836 -77.0397 204° Southwest 409 471 30,000  Level Washington Center
Fri 12:19:00 PM 36.5781 -77.1414 218° Southwest 399 459 30,000  Level Washington Center
Fri 12:20:00 PM 36.4892 -77.2247 217° Southwest 399 459 30,000  Level Washington Center
Fri 12:20:59 PM 36.4025 -77.3081 218° Southwest 399 459 30,000  Level Washington Center
Fri 12:21:59 PM 36.3117 -77.3886 216° Southwest 399 459 30,000  Level Washington Center
Fri 12:23:00 PM 36.2439 -77.4539 218° Southwest 399 459 30,000  Level Washington Center
Fri 12:24:01 PM 36.1486 -77.5444 218° Southwest 394 453 30,000  Level Washington Center
Fri 12:24:59 PM 36.0617 -77.6269 217° Southwest 399 459 30,000  Level Washington Center
Fri 12:25:59 PM 35.9747 -77.7094 218° Southwest 399 459 30,000  Level Washington Center
Fri 12:26:59 PM 35.8836 -77.7814 213° Southwest 399 459 30,000  Level Washington Center
Fri 12:28:00 PM 35.7883 -77.8531 211° Southwest 399 459 30,000  Level Washington Center
Fri 12:29:01 PM 35.6972 -77.9247 213° Southwest 399 459 30,000  Level Washington Center
Fri 12:29:59 PM 35.6039 -77.9986 213° Southwest 399 459 30,000  Level Washington Center
Fri 12:31:00 PM 35.5108 -78.0672 211° Southwest 399 459 30,000  Level Washington Center
Fri 12:32:00 PM 35.4175 -78.1381 212° Southwest 399 459 30,000 -51 Level Washington Center
Fri 12:32:58 PM 35.3242 -78.2142 214° Southwest 399 459 29,900 -555 Descending Washington Center
Fri 12:33:59 PM 35.2264 -78.2872 211° Southwest 404 465 28,900 -942 Descending Washington Center
Fri 12:34:59 PM 35.1267 -78.3653 213° Southwest 420 483 28,000 -443 Descending Washington Center
Fri 12:36:01 PM 35.0267 -78.4456 213° Southwest 425 489 28,000  Level Washington Center
Fri 12:36:59 PM 34.9289 -78.5206 212° Southwest 425 489 28,000  Level Washington Center
Fri 12:38:00 PM 34.8289 -78.5953 212° Southwest 420 483 28,000 -182 Level Washington Center
Fri 12:39:44 PM 34.6500 -78.7283 211° Southwest 420 483 27,500 -549 Descending Jacksonville Center
Fri 12:40:44 PM 34.5506 -78.8064 213° Southwest 420 483 26,500 -750 Descending Jacksonville Center
Fri 12:41:44 PM 34.4611 -78.8811 215° Southwest 426 490 26,000 -450 Descending Jacksonville Center
Fri 12:42:44 PM 34.3633 -78.9536 211° Southwest 426 490 25,600 -750 Descending Jacksonville Center
Fri 12:43:44 PM 34.2633 -79.0258 211° Southwest 421 484 24,500 -850 Descending Jacksonville Center
Fri 12:44:44 PM 34.1564 -79.0758 201° Southwest 416 479 23,900 -250 Descending Jacksonville Center
Fri 12:45:44 PM 34.0556 -79.1203 200° South 409 471 24,000 50 Climbing Jacksonville Center
Fri 12:46:44 PM 33.9564 -79.1622 199° South 397 457 24,000 -50 Level Jacksonville Center
Fri 12:47:44 PM 33.8578 -79.2089 201° Southwest 392 451 23,900 -1,200 Descending Jacksonville Center
Fri 12:48:44 PM 33.7589 -79.2581 202° Southwest 387 445 21,600 -2,500 Descending Jacksonville Center
Fri 12:49:44 PM 33.6692 -79.3267 212° Southwest 366 421 18,900 -2,450 Descending Jacksonville Center
Fri 12:50:44 PM 33.5875 -79.3897 213° Southwest 361 415 16,700 -2,150 Descending Jacksonville Center
Fri 12:51:44 PM 33.5056 -79.4478 211° Southwest 355 409 14,600 -2,150 Descending Jacksonville Center
Fri 12:52:44 PM 33.4258 -79.5081 212° Southwest 349 402 12,400 -1,850 Descending Jacksonville Center
Fri 12:53:44 PM 33.3522 -79.5681 214° Southwest 344 396 10,900 -1,100 Descending Jacksonville Center
Fri 12:54:44 PM 33.2783 -79.6156 208° Southwest 325 374 10,200 -850 Descending Jacksonville Center
Fri 12:55:44 PM 33.2064 -79.6578 206° Southwest 303 349 9,200 -1,000 Descending Jacksonville Center
Fri 12:56:44 PM 33.1303 -79.7028 206° Southwest 303 349 8,200 -1,000 Descending Jacksonville Center
Fri 12:57:44 PM 33.0583 -79.7475 208° Southwest 303 349 7,200 -1,000 Descending Jacksonville Center
Fri 12:58:44 PM 32.9886 -79.7944 209° Southwest 298 343 6,200 -900 Descending Jacksonville Center
Fri 12:59:44 PM 32.9292 -79.8336 209° Southwest 293 337 5,400 -650 Descending Jacksonville Center
Fri 01:00:44 PM 32.8633 -79.8756 208° Southwest 286 329 4,900 -500 Descending Jacksonville Center
Fri 01:02:00 PM 32.7774 -79.9893 220° Southwest  Level FlightAware Approximate
Fri 01:09:00 PM 32.8833 -80.0333 348° North  Level FlightAware Approximate
Fri 01:10:00 PM 32.8986 -80.0405 348° North  Level Estimated
Fri 01:11:00 PM 32.8986 -80.0405 348° North  Level Estimated
Fri 01:12:00 PM 32.8986 -80.0405 348° North  Level Estimated
Fri 01:13:00 PM 32.8986 -80.0405 348° North  Level Estimated

Login

Don't have an account? Register now (free) for customized features, flight alerts, and more!